Time;durP1;ratioP1;P1;durP2;ratioP2;P2;SDS_P1;SDS_P2;PMS_P1;PMS_P2;Temp;Humidity;BMP_temperature;BMP_pressure;BME280_temperature;BME280_humidity;BME280_pressure;Samples;Min_cycle;Max_cycle;Signal;HPM_P1;HPM_P2
2022/12/28 00:01:19;;;;;;;19.13;14.07;;;;;;;-0.43;93.18;147222.97;4823305;29;20039;-67
2022/12/28 00:03:45;;;;;;;19.83;14.90;;;;;;;-0.40;92.97;147230.56;4824643;29;20050;-65
2022/12/28 00:06:11;;;;;;;21.63;14.75;;;;;;;-0.34;93.57;147244.56;4831078;29;20081;-65
2022/12/28 00:08:39;;;;;;;19.52;14.55;;;;;;;-0.36;93.10;147239.44;4816610;29;20035;-66
2022/12/28 00:11:07;;;;;;;21.05;14.13;;;;;;;-0.44;92.70;147220.41;4834879;29;20057;-66
2022/12/28 00:13:34;;;;;;;18.50;14.55;;;;;;;-0.68;93.98;147159.38;4820816;29;20099;-65
2022/12/28 00:16:09;;;;;;;20.95;14.50;;;;;;;-0.39;93.79;147233.09;4826217;29;20086;-65
2022/12/28 00:18:36;;;;;;;22.30;15.35;;;;;;;-0.57;92.76;147187.34;4828413;29;20362;-64
2022/12/28 00:21:03;;;;;;;21.15;15.38;;;;;;;-0.27;92.92;147262.34;4818673;29;20046;-66
2022/12/28 00:23:29;;;;;;;20.45;14.82;;;;;;;-0.54;93.40;147196.25;4848624;29;20074;-66
2022/12/28 00:25:55;;;;;;;19.65;15.43;;;;;;;-0.39;93.60;147231.81;4820338;29;20118;-67
2022/12/28 00:28:20;;;;;;;22.02;15.35;;;;;;;-0.39;92.85;147231.81;4815311;29;20034;-66
2022/12/28 00:30:46;;;;;;;21.48;16.15;;;;;;;-0.44;93.12;147219.09;4816546;29;20056;-66
2022/12/28 00:33:11;;;;;;;22.23;15.90;;;;;;;-0.44;92.58;147220.41;4819579;29;20035;-66
2022/12/28 00:35:37;;;;;;;22.98;16.23;;;;;;;-0.45;93.36;147217.84;4834748;29;20091;-65
2022/12/28 00:38:03;;;;;;;19.63;14.80;;;;;;;-0.59;93.66;147183.53;4817338;29;20274;-66
2022/12/28 00:40:28;;;;;;;18.77;14.18;;;;;;;-0.35;93.05;147242.00;4829134;29;20319;-65
2022/12/28 00:42:54;;;;;;;20.40;15.27;;;;;;;-0.32;92.92;147248.38;4825933;29;20046;-66
2022/12/28 00:45:19;;;;;;;21.30;15.20;;;;;;;-0.36;92.75;147239.44;4820388;29;20038;-66
2022/12/28 00:47:45;;;;;;;20.42;16.23;;;;;;;-0.29;92.03;147257.25;4834667;29;20030;-67
2022/12/28 00:50:10;;;;;;;18.88;14.68;;;;;;;-0.38;92.72;147234.38;4816416;29;20118;-66
2022/12/28 00:52:36;;;;;;;21.55;15.50;;;;;;;-0.43;93.12;147222.97;4829963;29;20054;-66
2022/12/28 00:55:02;;;;;;;19.30;14.18;;;;;;;-0.50;92.81;147203.88;4834638;29;20272;-67
2022/12/28 00:57:30;;;;;;;19.38;13.82;;;;;;;-0.49;92.66;147207.69;4834333;29;20026;-66
2022/12/28 00:59:55;;;;;;;18.48;13.35;;;;;;;-0.77;92.94;147139.09;4833375;29;20078;-66
2022/12/28 01:02:21;;;;;;;19.50;14.05;;;;;;;-0.60;93.32;147179.72;4816160;29;20062;-66
2022/12/28 01:04:46;;;;;;;21.48;14.88;;;;;;;-0.59;93.24;147182.28;4830994;29;20045;-66
2022/12/28 01:07:12;;;;;;;19.85;14.45;;;;;;;-0.50;92.57;147205.13;4823437;29;20058;-66
2022/12/28 01:09:37;;;;;;;16.80;13.23;;;;;;;-0.60;92.72;147179.72;4822384;29;20251;-66
2022/12/28 01:12:03;;;;;;;18.92;12.82;;;;;;;-0.72;93.46;147151.75;4832255;29;20292;-66
2022/12/28 01:14:29;;;;;;;17.25;12.80;;;;;;;-0.58;92.77;147186.09;4816012;29;20051;-66
2022/12/28 01:16:54;;;;;;;17.02;12.15;;;;;;;-0.80;92.87;147131.44;4831988;29;20101;-66
2022/12/28 01:19:21;;;;;;;18.65;13.23;;;;;;;-0.71;93.62;147154.31;4833702;29;20057;-67
2022/12/28 01:21:49;;;;;;;18.65;13.75;;;;;;;-0.65;93.57;147168.28;4812520;29;20200;-67
2022/12/28 01:24:15;;;;;;;19.20;13.45;;;;;;;-0.70;92.89;147155.56;4849025;29;20026;-66
2022/12/28 01:26:40;;;;;;;18.30;12.20;;;;;;;-0.61;93.26;147178.47;4834229;29;20101;-67
2022/12/28 01:29:06;;;;;;;18.63;13.02;;;;;;;-0.68;93.33;147160.69;4817782;29;20031;-66
2022/12/28 01:31:32;;;;;;;18.65;12.52;;;;;;;-0.78;93.48;147135.28;4833611;29;20498;-67
2022/12/28 01:33:58;;;;;;;19.02;12.93;;;;;;;-0.61;92.51;147178.47;4827165;29;20271;-66
2022/12/28 01:36:30;;;;;;;17.20;12.55;;;;;;;-0.77;92.75;147139.09;4829610;29;20106;-65
2022/12/28 01:38:58;;;;;;;16.42;11.60;;;;;;;-0.72;93.20;147150.50;4815712;29;20319;-65
2022/12/28 01:41:25;;;;;;;16.52;11.23;;;;;;;-0.61;92.13;147177.22;4815450;29;20075;-65
2022/12/28 01:43:51;;;;;;;17.33;11.82;;;;;;;-0.61;92.96;147177.22;4830893;29;20249;-66
2022/12/28 01:46:21;;;;;;;16.08;11.63;;;;;;;-0.64;92.56;147170.84;4822969;29;20031;-65
2022/12/28 01:49:05;;;;;;;17.42;12.63;;;;;;;-0.55;92.59;147193.69;4823033;29;20047;-65
2022/12/28 01:51:53;;;;;;;18.58;12.00;;;;;;;-0.68;92.86;147160.69;4828504;29;20327;-65
2022/12/28 01:54:21;;;;;;;16.83;11.18;;;;;;;-0.68;92.86;147160.69;4819177;29;20038;-67
2022/12/28 01:56:47;;;;;;;18.02;12.05;;;;;;;-0.55;93.34;147192.44;4833905;29;20331;-67
2022/12/28 01:59:16;;;;;;;14.80;10.63;;;;;;;-0.52;92.47;147201.31;4833512;29;20348;-66
2022/12/28 02:01:42;;;;;;;15.90;11.13;;;;;;;-0.47;92.95;147212.78;4819842;29;20035;-66
2022/12/28 02:04:07;;;;;;;17.10;11.35;;;;;;;-0.57;92.93;147187.34;4824958;29;20041;-66
2022/12/28 02:06:33;;;;;;;14.63;11.32;;;;;;;-0.50;92.32;147205.13;4828456;29;20039;-65
2022/12/28 02:09:08;;;;;;;17.95;12.25;;;;;;;-0.55;92.34;147192.44;4816364;29;20074;-65
2022/12/28 02:11:35;;;;;;;15.20;10.90;;;;;;;-0.59;92.72;147183.53;4833617;29;20050;-65
2022/12/28 02:16:47;;;;;;;15.75;11.25;;;;;;;-0.71;93.07;147153.06;4833598;29;20044;-65
2022/12/28 02:19:19;;;;;;;18.55;12.18;;;;;;;-0.83;92.96;147123.81;4823269;29;20054;-65
2022/12/28 02:21:47;;;;;;;18.48;12.23;;;;;;;-0.70;92.53;147156.88;4822795;29;20109;-66
2022/12/28 02:24:19;;;;;;;16.75;11.80;;;;;;;-0.67;93.13;147161.94;4849000;29;20402;-66
2022/12/28 02:26:53;;;;;;;16.77;11.60;;;;;;;-0.50;92.50;147203.88;4833460;29;20091;-65
2022/12/28 02:29:36;;;;;;;18.48;12.73;;;;;;;-0.60;91.80;147179.72;4815127;29;20034;-66
2022/12/28 02:32:25;;;;;;;16.83;12.07;;;;;;;-0.57;92.47;147187.34;4834583;29;20239;-66
2022/12/28 02:35:17;;;;;;;16.38;12.63;;;;;;;-0.57;91.71;147188.63;4823882;29;20058;-66
2022/12/28 02:37:47;;;;;;;;;;;;;;;-0.57;91.33;147187.34;4837050;29;20042;-66
2022/12/28 02:40:20;;;;;;;19.67;12.75;;;;;;;-0.49;90.65;147207.69;4836189;29;19916;-66
2022/12/28 02:42:47;;;;;;;20.08;13.68;;;;;;;-0.72;90.42;147150.50;4820493;29;20034;-65
2022/12/28 02:51:30;;;;;;;19.02;13.45;;;;;;;-0.64;91.20;147170.84;4835344;29;20068;-67
2022/12/28 02:56:06;;;;;;;20.30;13.93;;;;;;;-0.67;91.25;147163.22;4818466;29;20031;-67
2022/12/28 02:57:30;;;;;;;20.05;14.25;;;;;;;-0.54;90.83;147196.25;4835070;29;20212;-66
2022/12/28 03:00:03;;;;;;;19.80;14.20;;;;;;;-0.59;91.34;147182.28;4818257;29;20046;-65
2022/12/28 03:02:35;;;;;;;18.88;14.07;;;;;;;-0.56;90.46;147191.13;4836398;29;20038;-66
2022/12/28 03:08:35;;;;;;;18.90;12.75;;;;;;;-0.74;91.25;147145.41;4835799;29;20068;-66
2022/12/28 03:11:07;;;;;;;19.50;13.75;;;;;;;-0.71;91.73;147154.31;4836147;29;20048;-65
2022/12/28 03:13:44;;;;;;;18.70;13.23;;;;;;;-0.53;91.55;147198.81;4823276;29;20068;-67
2022/12/28 03:25:41;;;;;;;21.48;14.00;;;;;;;-0.49;91.24;147207.69;4808975;29;20048;-66
2022/12/28 03:33:14;;;;;;;18.98;13.75;;;;;;;-0.58;90.61;147186.09;4817172;29;20038;-66
2022/12/28 03:35:44;;;;;;;18.30;13.27;;;;;;;-0.60;90.22;147181.03;4817570;29;20034;-65
2022/12/28 03:38:14;;;;;;;18.42;14.00;;;;;;;-0.80;90.86;147131.44;4834007;29;20083;-64
2022/12/28 03:40:39;;;;;;;28.73;19.42;;;;;;;-0.46;90.68;147214.03;4822630;29;20026;-66
2022/12/28 03:46:05;;;;;;;19.77;13.77;;;;;;;-0.53;90.61;147198.81;4828070;29;20058;-66
2022/12/28 03:48:33;;;;;;;22.75;14.82;;;;;;;-0.74;90.79;147146.69;4821334;29;20042;-65
2022/12/28 03:50:59;;;;;;;24.38;15.63;;;;;;;-0.65;90.30;147168.28;4835392;29;20034;-65
2022/12/28 03:53:31;;;;;;;20.58;12.75;;;;;;;-0.74;90.49;147145.41;4835149;29;20361;-66
2022/12/28 03:56:15;;;;;;;19.10;13.80;;;;;;;-0.62;91.09;147174.66;4835183;29;20034;-65
2022/12/28 03:58:41;;;;;;;21.05;13.15;;;;;;;-0.57;90.40;147188.63;4835199;29;20067;-66
2022/12/28 04:01:06;;;;;;;20.02;13.32;;;;;;;-0.48;90.60;147208.97;4826709;29;20027;-66
2022/12/28 04:03:32;;;;;;;21.45;13.70;;;;;;;-0.53;90.76;147198.81;4834004;29;20034;-65
2022/12/28 04:05:58;;;;;;;20.75;12.98;;;;;;;-0.45;91.35;147217.84;4835263;29;20314;-65
2022/12/28 04:08:24;;;;;;;19.10;12.60;;;;;;;-0.43;91.39;147221.66;4816936;29;20027;-66
2022/12/28 04:10:49;;;;;;;22.48;13.25;;;;;;;-0.63;91.78;147173.34;4820675;29;20026;-65
2022/12/28 04:13:15;;;;;;;21.02;13.55;;;;;;;-0.56;91.63;147191.13;4825062;29;20047;-66
2022/12/28 04:15:40;;;;;;;19.33;13.25;;;;;;;-0.60;91.08;147181.03;4820234;29;20113;-65
2022/12/28 04:18:06;;;;;;;23.67;13.68;;;;;;;-0.54;92.34;147195.00;4834802;29;20196;-64
2022/12/28 04:20:31;;;;;;;22.35;13.50;;;;;;;-0.67;91.82;147163.22;4834979;29;20026;-65
2022/12/28 04:22:57;;;;;;;20.30;13.45;;;;;;;-0.56;92.39;147189.88;4828234;29;20033;-64
2022/12/28 04:25:23;;;;;;;21.55;14.15;;;;;;;-0.52;91.31;147200.06;4826275;29;20042;-64
2022/12/28 04:27:48;;;;;;;22.00;14.15;;;;;;;-0.45;91.16;147217.84;4834908;29;20030;-65
2022/12/28 04:30:14;;;;;;;19.17;13.30;;;;;;;-0.63;91.39;147172.09;4833016;29;20075;-64
2022/12/28 04:32:39;;;;;;;19.60;13.25;;;;;;;-0.54;90.51;147196.25;4816230;29;20094;-65
2022/12/28 04:35:05;;;;;;;23.92;14.68;;;;;;;-0.39;91.46;147231.81;4831641;29;20083;-65
2022/12/28 04:37:31;;;;;;;20.52;13.93;;;;;;;-0.60;90.90;147181.03;4834420;29;20034;-65
2022/12/28 04:39:56;;;;;;;25.95;15.05;;;;;;;-0.56;91.44;147189.88;4827817;29;20319;-66
2022/12/28 04:42:23;;;;;;;22.38;13.88;;;;;;;-0.64;91.09;147170.84;4816121;29;20123;-65
2022/12/28 04:44:49;;;;;;;22.67;14.82;;;;;;;-0.56;90.58;147189.88;4815945;29;20066;-64
2022/12/28 04:47:14;;;;;;;24.02;14.52;;;;;;;-0.73;91.81;147149.25;4832458;29;20134;-66
2022/12/28 04:49:40;;;;;;;24.80;15.55;;;;;;;-0.68;91.45;147160.69;4821948;29;20033;-65
2022/12/28 04:52:05;;;;;;;22.55;14.63;;;;;;;-0.43;91.48;147221.66;4815946;29;20156;-65
2022/12/28 04:54:31;;;;;;;27.50;15.80;;;;;;;-0.51;90.56;147202.63;4818974;29;20041;-66
2022/12/28 04:56:56;;;;;;;22.85;14.43;;;;;;;-0.40;90.27;147230.56;4834375;29;20034;-65
2022/12/28 04:59:22;;;;;;;25.63;15.93;;;;;;;-0.47;89.78;147212.78;4833727;29;20041;-68
2022/12/28 05:01:47;;;;;;;26.23;15.13;;;;;;;-0.61;89.80;147178.47;4804952;29;20156;-67
2022/12/28 05:04:13;;;;;;;21.50;14.52;;;;;;;-0.80;90.65;147131.44;4824781;29;20037;-66
2022/12/28 05:06:39;;;;;;;24.50;15.75;;;;;;;-0.55;90.93;147192.44;4830172;29;20057;-68
2022/12/28 05:09:04;;;;;;;22.95;14.35;;;;;;;-0.55;91.52;147193.69;4831352;29;20103;-67
2022/12/28 05:11:30;;;;;;;23.73;14.57;;;;;;;-0.75;90.31;147142.91;4815820;29;20026;-66
2022/12/28 05:13:56;;;;;;;22.67;14.27;;;;;;;-0.63;90.15;147173.34;4816006;29;20367;-67
2022/12/28 05:16:24;;;;;;;21.77;14.60;;;;;;;-0.59;90.58;147182.28;4824947;29;20050;-66
2022/12/28 05:18:50;;;;;;;22.45;14.95;;;;;;;-0.66;90.58;147164.50;4828514;29;20337;-67
2022/12/28 05:21:18;;;;;;;20.95;13.68;;;;;;;-0.77;90.59;147137.78;4799581;29;20022;-67
2022/12/28 05:23:44;;;;;;;26.60;14.38;;;;;;;-0.81;90.70;147127.63;4847217;29;20177;-67
2022/12/28 05:26:15;;;;;;;21.73;14.70;;;;;;;-0.72;91.63;147151.75;4836497;29;20034;-67
2022/12/28 05:28:41;;;;;;;23.60;14.13;;;;;;;-0.70;90.38;147156.88;4821687;29;20052;-67
2022/12/28 05:31:09;;;;;;;22.23;14.15;;;;;;;-0.68;91.39;147160.69;4823223;29;20054;-66
2022/12/28 05:33:35;;;;;;;23.55;14.38;;;;;;;-0.75;90.89;147142.91;4829963;29;20046;-66
2022/12/28 05:36:21;;;;;;;23.70;15.18;;;;;;;-0.91;91.49;147103.53;4799781;29;20038;-67
2022/12/28 05:38:48;;;;;;;22.08;15.32;;;;;;;-0.61;90.34;147178.47;4815520;29;20272;-67
2022/12/28 05:41:16;;;;;;;21.38;14.82;;;;;;;-0.77;90.58;147139.09;4831565;29;20030;-67
2022/12/28 05:43:43;;;;;;;23.33;15.13;;;;;;;-0.87;91.29;147113.63;4833558;29;20061;-67
2022/12/28 05:46:11;;;;;;;25.45;15.85;;;;;;;-0.72;91.23;147151.75;4825924;29;20035;-67
2022/12/28 05:48:39;;;;;;;24.63;17.65;;;;;;;-0.67;90.34;147161.94;4815540;29;20055;-67
2022/12/28 05:51:07;;;;;;;25.05;16.73;;;;;;;-0.87;90.24;147114.94;4815661;29;20219;-67
2022/12/28 05:53:34;;;;;;;29.58;18.95;;;;;;;-0.75;90.29;147142.91;4815806;29;20098;-66
2022/12/28 05:56:09;;;;;;;28.60;18.73;;;;;;;-0.61;91.04;147178.47;4829776;29;20060;-67
2022/12/28 05:58:34;;;;;;;27.88;18.48;;;;;;;-0.76;89.91;147141.59;4821229;29;20034;-67
2022/12/28 06:01:12;;;;;;;28.33;19.40;;;;;;;-1.11;90.66;147053.94;4815233;29;20042;-67
2022/12/28 06:03:38;;;;;;;27.08;18.27;;;;;;;-0.88;90.62;147112.38;4832392;29;20118;-66
2022/12/28 06:06:09;;;;;;;27.42;18.33;;;;;;;-0.83;90.98;147122.56;4834422;29;20031;-66
2022/12/28 06:08:36;;;;;;;28.30;18.85;;;;;;;-0.70;91.03;147156.88;4843921;29;20034;-67
2022/12/28 06:11:04;;;;;;;26.30;18.45;;;;;;;-1.06;89.89;147066.66;4852127;29;20041;-66
2022/12/28 06:13:31;;;;;;;31.30;18.05;;;;;;;-0.60;89.58;147181.03;4840514;29;20311;-66
2022/12/28 06:15:57;;;;;;;31.58;18.65;;;;;;;-0.54;90.03;147195.00;4808839;29;20034;-66
2022/12/28 06:18:27;;;;;;;26.00;17.15;;;;;;;-0.68;90.50;147160.69;4836841;29;20363;-66
2022/12/28 06:20:52;;;;;;;24.45;16.42;;;;;;;-0.68;90.16;147160.69;4836612;29;20027;-66
2022/12/28 06:23:18;;;;;;;28.23;17.48;;;;;;;-0.48;89.31;147208.97;4834469;29;20049;-65
2022/12/28 06:25:43;;;;;;;24.17;15.75;;;;;;;-0.26;89.92;147263.59;4824641;29;20039;-66
2022/12/28 06:28:09;;;;;;;22.27;15.00;;;;;;;-0.31;88.87;147250.88;4826047;29;20026;-66
2022/12/28 06:30:35;;;;;;;20.38;14.02;;;;;;;-0.42;88.44;147224.22;4847532;29;20031;-66
2022/12/28 06:33:00;;;;;;;21.35;14.68;;;;;;;-0.52;89.00;147201.31;4854887;29;20045;-66
2022/12/28 06:35:26;;;;;;;22.48;14.02;;;;;;;-0.31;88.34;147252.19;4841664;29;20082;-66
2022/12/28 06:37:51;;;;;;;18.85;14.02;;;;;;;-0.50;88.34;147203.88;4844303;29;20038;-65
2022/12/28 06:40:17;;;;;;;21.45;14.27;;;;;;;-0.58;88.58;147186.09;4851125;29;20025;-66
2022/12/28 06:42:42;;;;;;;18.17;13.07;;;;;;;-0.50;89.57;147205.13;4852016;29;20034;-65
2022/12/28 06:45:08;;;;;;;21.50;14.48;;;;;;;-0.70;89.56;147156.88;4854106;29;20092;-67
2022/12/28 06:47:35;;;;;;;22.08;13.38;;;;;;;-0.57;89.88;147188.63;4853195;29;20092;-66
2022/12/28 06:50:02;;;;;;;20.50;13.75;;;;;;;-0.46;89.76;147215.28;4847759;29;20058;-66
2022/12/28 06:52:28;;;;;;;16.50;13.13;;;;;;;-0.53;89.12;147197.50;4843993;29;20029;-65
2022/12/28 06:54:54;;;;;;;18.45;13.90;;;;;;;-0.58;89.41;147186.09;4853078;29;20034;-66
2022/12/28 06:57:20;;;;;;;21.30;14.93;;;;;;;-0.43;89.77;147222.97;4848689;29;20318;-66
2022/12/28 06:59:45;;;;;;;20.08;14.05;;;;;;;-0.40;88.87;147229.28;4829505;29;20030;-65
2022/12/28 07:02:11;;;;;;;18.75;13.85;;;;;;;-0.40;89.08;147229.28;4840365;29;20053;-66
2022/12/28 07:04:36;;;;;;;20.70;13.35;;;;;;;-0.41;89.17;147228.03;4825610;29;20274;-65
2022/12/28 07:07:02;;;;;;;20.13;14.15;;;;;;;-0.31;89.76;147250.88;4811423;29;20097;-65
2022/12/28 07:09:28;;;;;;;20.10;14.15;;;;;;;-0.22;88.99;147275.03;4832007;29;20133;-66
2022/12/28 07:11:53;;;;;;;21.50;14.60;;;;;;;-0.20;89.37;147280.13;4828104;29;20042;-66
2022/12/28 07:14:19;;;;;;;17.00;13.07;;;;;;;-0.39;89.66;147231.81;4803450;29;20057;-66
2022/12/28 07:16:46;;;;;;;18.42;13.48;;;;;;;-0.35;88.83;147242.00;4829344;29;20045;-66
2022/12/28 07:19:11;;;;;;;16.75;12.38;;;;;;;-0.33;89.33;147247.06;4822644;29;20067;-66
2022/12/28 07:21:38;;;;;;;18.02;13.10;;;;;;;-0.44;89.08;147219.09;4818432;29;20034;-66
2022/12/28 07:24:05;;;;;;;18.20;13.85;;;;;;;-0.51;90.06;147202.63;4828543;29;20202;-66
2022/12/28 13:55:35;;;;;;;31.30;16.23;;;;;;;0.00;87.16;147328.47;4183608;27;19921;-66
2022/12/28 13:58:06;;;;;;;25.17;15.40;;;;;;;0.07;87.10;147346.25;4826273;29;20049;-66
2022/12/28 14:00:34;;;;;;;22.15;15.93;;;;;;;0.21;86.95;147379.28;4820531;29;20031;-66
2022/12/28 14:03:00;;;;;;;23.58;14.43;;;;;;;0.17;87.92;147370.38;4815245;29;20042;-66
2022/12/28 14:05:28;;;;;;;22.73;15.60;;;;;;;0.10;87.36;147352.56;4814042;29;20136;-67
2022/12/28 14:07:56;;;;;;;23.52;15.07;;;;;;;0.06;87.28;147343.69;4811843;29;20042;-66
2022/12/28 14:10:23;;;;;;;24.30;15.73;;;;;;;-0.04;87.70;147319.53;4813883;29;20056;-65
2022/12/28 14:12:50;;;;;;;23.30;14.57;;;;;;;0.16;87.20;147369.13;4815975;29;20029;-65
2022/12/28 14:15:17;;;;;;;25.17;15.82;;;;;;;0.20;87.21;147376.75;4814959;29;20030;-65
2022/12/28 14:17:46;;;;;;;22.42;15.02;;;;;;;0.05;86.81;147339.88;4814890;29;20022;-66
2022/12/28 14:20:12;;;;;;;25.67;15.70;;;;;;;0.19;87.04;147375.47;4814396;29;20099;-66
2022/12/28 14:22:39;;;;;;;24.27;15.35;;;;;;;-0.06;86.79;147313.16;4812572;29;20047;-66
2022/12/28 14:25:12;;;;;;;25.40;14.75;;;;;;;-0.03;86.17;147320.78;4814765;29;20060;-66
2022/12/28 14:27:54;;;;;;;23.75;14.63;;;;;;;0.10;86.85;147353.88;4817767;29;20039;-67
2022/12/28 14:30:35;;;;;;;22.77;14.45;;;;;;;0.01;86.14;147330.97;4807737;29;20276;-67
2022/12/28 14:33:11;;;;;;;23.77;15.38;;;;;;;-0.26;86.71;147264.84;4818720;29;20031;-67
2022/12/28 14:35:44;;;;;;;21.35;13.93;;;;;;;-0.30;86.74;147253.44;4818359;29;20050;-68
2022/12/28 14:38:17;;;;;;;23.08;14.90;;;;;;;-0.22;87.29;147275.03;4818204;29;20042;-66
2022/12/28 14:40:43;;;;;;;22.75;14.65;;;;;;;-0.25;87.35;147267.41;4818331;29;20330;-66
2022/12/28 14:43:17;;;;;;;21.90;14.35;;;;;;;-0.24;86.99;147268.72;4818340;29;20046;-67
2022/12/28 14:45:46;;;;;;;20.13;12.80;;;;;;;-0.12;85.85;147297.94;4818321;29;20051;-67
2022/12/28 14:48:36;;;;;;;21.17;14.20;;;;;;;-0.14;86.09;147294.13;4818362;29;20034;-66
2022/12/28 14:51:05;;;;;;;22.42;15.25;;;;;;;-0.08;85.14;147308.09;4800187;29;20024;-66
2022/12/28 14:53:31;;;;;;;20.40;13.82;;;;;;;-0.07;85.29;147311.91;4805596;29;20275;-67
2022/12/28 14:56:10;;;;;;;18.42;12.68;;;;;;;-0.04;84.54;147318.28;4826050;29;20101;-66
2022/12/28 14:58:57;;;;;;;20.05;13.35;;;;;;;-0.08;86.16;147309.38;4836204;29;20034;-67
2022/12/28 15:01:37;;;;;;;23.23;13.68;;;;;;;-0.13;85.26;147296.63;4829083;29;20157;-67
2022/12/28 15:04:04;;;;;;;20.05;13.55;;;;;;;-0.07;85.35;147310.63;4836248;29;20251;-67
2022/12/28 15:06:31;;;;;;;21.67;14.18;;;;;;;-0.13;85.65;147295.38;4834930;29;20195;-67
2022/12/28 15:08:58;;;;;;;20.35;13.25;;;;;;;-0.10;85.07;147304.31;4836495;29;20307;-67
2022/12/28 15:11:27;;;;;;;22.38;13.80;;;;;;;-0.01;86.27;147325.91;4836066;29;20045;-67
2022/12/28 15:13:52;;;;;;;21.42;14.57;;;;;;;0.09;85.53;147351.31;4836018;29;20078;-65
2022/12/28 15:16:23;;;;;;;23.92;15.77;;;;;;;0.01;85.67;147330.97;4835898;29;20219;-66
2022/12/28 15:18:50;;;;;;;19.25;13.00;;;;;;;0.10;85.57;147353.88;4833959;29;20223;-68
2022/12/28 15:21:18;;;;;;;19.55;13.68;;;;;;;0.09;85.71;147351.31;4836093;29;20105;-66
2022/12/28 15:23:48;;;;;;;26.00;15.68;;;;;;;-0.13;86.70;147295.38;4835844;29;20038;-66
2022/12/28 15:26:14;;;;;;;24.13;16.02;;;;;;;-0.07;86.62;147310.63;4834993;29;20295;-67
2022/12/28 15:28:40;;;;;;;24.75;16.17;;;;;;;0.00;87.16;147328.47;4835995;29;20041;-66
2022/12/28 15:31:07;;;;;;;22.30;15.63;;;;;;;-0.11;86.12;147301.75;4836001;29;20301;-67
2022/12/28 15:33:34;;;;;;;24.48;15.70;;;;;;;-0.15;85.68;147291.56;4835940;29;20089;-66
2022/12/28 15:36:09;;;;;;;26.02;15.20;;;;;;;-0.05;86.83;147316.97;4836476;29;20079;-67
2022/12/28 15:38:34;;;;;;;22.30;15.45;;;;;;;0.03;86.14;147336.06;4836414;29;20026;-66
2022/12/28 15:41:00;;;;;;;24.85;15.10;;;;;;;0.06;85.82;147343.69;4836854;29;20050;-65
2022/12/28 15:43:26;;;;;;;23.83;16.20;;;;;;;0.00;87.06;147328.47;4835878;29;20061;-67
2022/12/28 15:45:55;;;;;;;20.63;14.57;;;;;;;0.02;87.25;147332.28;4835926;29;20030;-67
2022/12/28 15:48:21;;;;;;;24.65;16.23;;;;;;;-0.07;87.63;147311.91;4834545;29;20038;-67
2022/12/28 15:50:47;;;;;;;22.42;14.32;;;;;;;-0.05;86.88;147316.97;4835779;29;20030;-66
2022/12/28 15:53:13;;;;;;;23.10;14.63;;;;;;;-0.05;85.92;147315.72;4835469;29;20030;-66
2022/12/28 15:55:38;;;;;;;19.10;13.98;;;;;;;0.02;85.57;147333.53;4835820;29;20117;-67
2022/12/28 15:58:04;;;;;;;19.25;13.00;;;;;;;-0.02;85.92;147324.59;4835775;29;20079;-68
2022/12/28 16:00:30;;;;;;;18.75;13.32;;;;;;;-0.06;85.85;147313.16;4835342;29;20053;-66
2022/12/28 16:02:55;;;;;;;18.23;12.95;;;;;;;0.02;85.69;147333.53;4835425;29;20075;-65
2022/12/28 16:05:21;;;;;;;20.88;13.13;;;;;;;-0.07;85.74;147311.91;4835076;29;20331;-67
2022/12/28 16:07:47;;;;;;;19.98;13.32;;;;;;;0.06;85.36;147342.41;4835470;29;20089;-67
2022/12/28 16:10:13;;;;;;;19.05;12.90;;;;;;;0.04;85.38;147337.34;4835337;29;20196;-67
2022/12/28 16:12:39;;;;;;;19.48;13.32;;;;;;;-0.05;85.47;147316.97;4835268;29;20386;-67
2022/12/28 16:15:06;;;;;;;21.33;12.88;;;;;;;0.05;85.29;147341.16;4835348;29;20030;-66
2022/12/28 16:17:33;;;;;;;21.83;12.02;;;;;;;0.06;84.94;147343.69;4835135;29;20109;-67
2022/12/28 16:19:58;;;;;;;16.30;11.88;;;;;;;-0.02;84.30;147324.59;4834976;29;20097;-66
2022/12/28 16:22:24;;;;;;;18.98;12.88;;;;;;;-0.01;85.49;147325.91;4829384;29;20072;-66
2022/12/28 16:24:50;;;;;;;15.05;12.02;;;;;;;-0.10;84.48;147303.00;4816938;29;20034;-67
2022/12/28 16:27:16;;;;;;;18.75;11.93;;;;;;;-0.09;85.85;147305.56;4817025;29;20322;-67
2022/12/28 16:29:44;;;;;;;17.38;12.65;;;;;;;-0.14;84.87;147292.81;4833432;29;20070;-66
2022/12/28 16:32:10;;;;;;;15.82;11.65;;;;;;;-0.18;85.53;147283.94;4834948;29;20038;-66
2022/12/28 16:34:36;;;;;;;16.13;12.60;;;;;;;-0.40;85.07;147229.28;4834599;29;20058;-67
2022/12/28 16:37:01;;;;;;;17.67;12.10;;;;;;;-0.23;85.48;147272.53;4834809;29;20042;-66
2022/12/28 16:39:28;;;;;;;20.75;13.10;;;;;;;-0.26;85.78;147264.84;4834555;29;20031;-66
2022/12/28 16:41:54;;;;;;;16.33;11.65;;;;;;;-0.19;85.21;147282.66;4834762;29;20315;-68
2022/12/28 16:44:22;;;;;;;14.35;11.80;;;;;;;-0.23;85.38;147272.53;4834920;29;20038;-67
2022/12/28 16:46:48;;;;;;;14.50;11.18;;;;;;;-0.13;85.51;147295.38;4834463;29;20061;-66
2022/12/28 16:49:15;;;;;;;16.27;11.75;;;;;;;-0.10;84.73;147303.00;4848022;29;20034;-67
2022/12/28 16:51:44;;;;;;;15.63;11.68;;;;;;;-0.04;84.87;147318.28;4834336;29;20066;-67
2022/12/28 16:54:17;;;;;;;17.23;11.10;;;;;;;-0.11;85.84;147301.75;4833985;29;20042;-67
2022/12/28 16:56:45;;;;;;;15.63;11.70;;;;;;;-0.14;84.99;147294.13;4834459;29;20302;-67
2022/12/28 16:59:16;;;;;;;19.27;11.98;;;;;;;0.07;85.57;147346.25;4834598;29;20102;-67
2022/12/28 17:01:42;;;;;;;20.15;13.57;;;;;;;0.09;85.56;147350.06;4834323;29;20089;-67
2022/12/28 17:04:08;;;;;;;20.30;12.82;;;;;;;-0.03;84.63;147322.09;4834464;29;20353;-67
2022/12/28 17:06:33;;;;;;;20.35;13.00;;;;;;;-0.01;85.67;147325.91;4834311;29;20026;-66
2022/12/28 17:09:01;;;;;;;15.93;11.43;;;;;;;0.08;85.42;147348.75;4834479;29;20030;-67
2022/12/28 17:11:27;;;;;;;15.40;11.60;;;;;;;0.11;85.27;147356.38;4834010;29;20031;-66
2022/12/28 17:13:52;;;;;;;17.70;12.13;;;;;;;0.16;85.42;147367.88;4834316;29;20060;-67
2022/12/28 17:16:18;;;;;;;16.77;10.70;;;;;;;0.10;85.09;147353.88;4833840;29;20318;-66
2022/12/28 17:21:19;;;;;;;18.13;12.05;;;;;;;0.23;84.92;147385.66;4890027;24;20058;-65
2022/12/28 17:23:44;;;;;;;16.45;11.82;;;;;;;0.27;85.21;147394.53;4833486;29;20048;-65
2022/12/28 17:26:10;;;;;;;15.00;11.75;;;;;;;0.23;84.82;147385.66;4839329;29;20041;-66
2022/12/28 17:28:36;;;;;;;16.33;11.73;;;;;;;0.27;84.78;147395.84;4838903;29;20022;-65
2022/12/28 17:31:04;;;;;;;15.77;10.57;;;;;;;0.23;84.60;147384.38;4847531;29;20118;-65
2022/12/28 17:33:29;;;;;;;16.02;11.00;;;;;;;-0.01;84.97;147325.91;4832643;29;20062;-66
2022/12/28 17:35:55;;;;;;;14.63;10.18;;;;;;;0.05;85.21;147339.88;4833566;29;20250;-65
2022/12/28 17:38:20;;;;;;;15.57;9.60;;;;;;;-0.14;85.54;147292.81;4834005;29;20027;-65
2022/12/28 17:40:46;;;;;;;15.23;9.32;;;;;;;0.08;84.73;147348.75;4833452;29;20020;-66
2022/12/28 17:43:11;;;;;;;14.93;9.23;;;;;;;-0.03;85.05;147322.09;4833753;29;20045;-66
2022/12/28 17:45:37;;;;;;;18.63;9.50;;;;;;;0.17;85.04;147371.69;4832807;29;20046;-65
2022/12/28 17:48:03;;;;;;;17.25;10.27;;;;;;;0.10;85.25;147353.88;4833860;29;20063;-65
2022/12/28 17:50:28;;;;;;;13.82;8.82;;;;;;;0.15;84.62;147366.56;4833637;29;20367;-66
2022/12/28 17:52:54;;;;;;;14.88;9.20;;;;;;;0.21;84.60;147379.28;4833638;29;20046;-64
2022/12/28 17:55:20;;;;;;;12.52;9.25;;;;;;;0.12;85.23;147357.69;4841823;29;20083;-64
2022/12/28 17:57:45;;;;;;;14.15;9.05;;;;;;;0.16;85.55;147369.13;4833793;29;20275;-64
2022/12/28 18:00:12;;;;;;;16.52;9.77;;;;;;;0.15;85.20;147366.56;4834470;29;20026;-64
2022/12/28 18:02:37;;;;;;;15.68;9.95;;;;;;;0.14;85.56;147364.06;4837229;29;20082;-67
2022/12/28 18:05:03;;;;;;;14.80;10.18;;;;;;;0.22;85.07;147383.09;4837222;29;20034;-66
2022/12/28 18:07:29;;;;;;;11.82;9.50;;;;;;;0.30;84.88;147403.47;4837047;29;20030;-64
2022/12/28 18:09:54;;;;;;;16.38;9.82;;;;;;;0.30;85.54;147402.16;4836889;29;20026;-65
2022/12/28 18:12:20;;;;;;;16.42;9.70;;;;;;;0.31;84.93;147406.03;4820775;29;20037;-65
2022/12/28 18:14:45;;;;;;;14.30;9.35;;;;;;;0.40;84.62;147427.63;4835753;29;20098;-67
2022/12/28 18:17:11;;;;;;;18.67;11.30;;;;;;;0.39;84.09;147423.81;4829354;29;20102;-68